Londonderry, VT

1:55 PM EDT on August 28, 2015 (GMT -0400)
South Londonderry | | Change Station
CLOSE
Current Station
Personal Weather Station
Location: Londonderry, VT
Elevation: 1070 ft
Nearby Weather Stations

Elev 1070 ft 43.19 °N, 72.80 °W | Updated 21 seconds ago

Partly Cloudy
Partly Cloudy
69.6 °F
Feels Like 69.6 °F
N
2.7
Wind Variable Wind from North
Gusts 4.9 mph

Today
High -- | Low -- °F
--% Chance of Precip.
Yesterday
High -- | Low -- °F
Precip. -- in
6:10 AM 7:33 PM
Waxing Gibbous, 98% visible
Pressure 30.17 in
Visibility 10.0 miles
Clouds Mostly Cloudy 6000 ft
Dew Point 55 °F
Humidity 59%
Rainfall 0.00 in
Snow Depth Not available.
UV 4.0 out of 12
Pollen 9.10 out of 12
Air Quality Not available.
Flu Activity Not available.
METAR KVSF 281654Z AUTO 01004KT 10SM BKN060 23/12 A3017 RMK AO2 SLP216 T02330122
Pressure 30.17 in
Visibility 10.0 miles
Clouds Mostly Cloudy 6000 ft
Dew Point 55 °F
Humidity 59%
Rainfall 0.00 in
Snow Depth Not available.
UV 4.0 out of 12
Pollen 9.10 out of 12
Air Quality Not available.
Flu Activity Not available.
METAR KVSF 281654Z AUTO 01004KT 10SM BKN060 23/12 A3017 RMK AO2 SLP216 T02330122

10-Day Weather Forecast

×

Almanac

Astronomy

Aug. 28, 2015 Rise Set
Actual Time
Civil Twilight
Nautical Twilight
Astronomical Twilight
Moon
Length of Visible Light
Length of Day
Tomorrow will be .
, % of the Moon is Illuminated

Today's Extremes

State Highs State Lows

Community

WunderPhotos

Upload Photos

1,850,444 photos uploaded!

WunderBlogs® & News

Nearby

Air Quality

  Air Quality AQ Index Pollutant
Not available.

Snow Depth

Station Depth Elevation

Earthquake Activity

City Distance Mag. Time & Date
Minimum magnitude displayed is 2.5.

Coastal Water Temperatures

Place Temperature

Stations

Nearby Weather Stations

Station Location Temp. Windchill Dew Point Humidity Wind Precip. Elev Updated Type